Latest Weather Observations for Coondewanna

IDW60801

Issued at 2:05 pm WST Sunday 20 April 2014 (issued every 30 minutes, with the page automatically refreshed every 10 minutes)

About weather observations | Map of weather stations | Latest weather observations for WA | Other Formats
Station Details ID: 505051 Name: COONDEWANNA Lat: -22.96 Lon: 118.81 Height: 697.63 m
Data from the previous 72 hours. | See also: Recent months for locations in Western Australia
Date/Time
WST
Temp
°C
App
Temp
°C
Dew
Point
Rel
Hum
%
Delta-T
°C
Wind Press
QNH
hPa
Press
MSL
hPa
Rain
since 9 am
mm
Dir
 
Spd
km/h
Gust
km/h
Spd
kts
Gust
kts
20/02:00pm 32.9 29.0 0.9 13 16.3 NNW 11 24 6 13 1013.9 1009.4 0.0
20/01:30pm 32.1 28.6 1.3 14 15.8 NW 9 19 5 10 1014.0 - 0.0
20/01:00pm 31.9 27.8 2.1 15 15.4 N 13 20 7 11 1014.5 1010.1 0.0
20/12:30pm 30.8 26.5 1.2 15 15.0 WNW 13 24 7 13 1015.0 - 0.0
20/12:00pm 31.2 27.1 2.4 16 14.9 NW 13 19 7 10 1015.6 1011.2 0.0
20/11:30am 31.2 26.7 2.4 16 14.9 N 15 20 8 11 1016.0 - 0.0
20/11:00am 29.9 26.7 3.0 18 14.0 W 9 15 5 8 1016.3 1011.9 0.0
20/10:30am 29.2 26.2 3.9 20 13.3 W 9 13 5 7 1016.8 - 0.0
20/10:00am 28.0 25.2 5.0 23 12.2 SW 9 13 5 7 1017.1 1012.7 0.0
20/09:30am 26.7 24.3 4.5 24 11.6 WSW 6 9 3 5 1017.3 - 0.0
20/09:00am 25.0 23.5 3.0 24 11.1 CALM 0 0 0 0 1017.3 1012.9 0.0
20/08:30am 22.2 20.6 2.3 27 9.7 CALM 0 6 0 3 1017.4 - 0.0
20/08:00am 19.4 17.8 2.7 33 8.0 CALM 0 0 0 0 1017.4 1013.0 0.0
20/07:30am 15.4 13.7 1.9 40 6.2 CALM 0 0 0 0 1017.3 - 0.0
20/07:00am 13.5 11.4 1.8 45 5.3 SE 2 6 1 3 1017.1 1012.7 0.0
20/06:30am 12.5 10.4 1.5 47 4.9 SE 2 7 1 4 1016.8 - 0.0
20/06:00am 13.9 10.8 1.5 43 5.6 SE 7 9 4 5 1016.7 1012.3 0.0
20/05:30am 11.9 9.8 1.5 49 4.6 W 2 6 1 3 1016.4 - 0.0
20/05:00am 13.2 11.4 1.2 44 5.3 CALM 0 0 0 0 1016.1 1011.7 0.0
20/04:30am 14.0 11.4 1.0 41 5.8 W 4 7 2 4 1016.0 - 0.0
20/04:00am 15.8 11.5 0.8 36 6.8 E 13 15 7 8 1015.8 1011.4 0.0
20/03:30am 13.4 9.8 0.8 42 5.6 E 9 11 5 6 1015.9 - 0.0
20/03:00am 16.3 12.4 1.2 36 6.9 E 11 13 6 7 1015.6 1011.2 0.0
20/02:30am 15.8 12.3 1.2 37 6.6 E 9 13 5 7 1015.7 - 0.0
20/02:00am 15.0 11.9 1.2 39 6.2 E 7 9 4 5 1015.8 1011.4 0.0
20/01:30am 14.4 11.3 1.3 41 5.9 E 7 11 4 6 1016.1 - 0.0
20/01:00am 15.7 13.6 1.4 38 6.5 E 2 7 1 4 1016.2 1011.8 0.0
20/12:30am 16.1 14.3 1.0 36 6.8 CALM 0 0 0 0 1016.2 - 0.0
20/12:00am 18.2 14.3 1.3 32 7.8 W 11 13 6 7 1016.3 1011.9 0.0
 
Date/Time
WST
Temp
°C
App
Temp
°C
Dew
Point
Rel
Hum
%
Delta-T
°C
Wind Press
QNH
hPa
Press
MSL
hPa
Rain
since 9 am
mm
Dir
 
Spd
km/h
Gust
km/h
Spd
kts
Gust
kts
19/11:30pm 17.7 14.8 1.2 33 7.6 W 6 9 3 5 1016.7 - 0.0
19/11:00pm 18.3 15.8 1.3 32 7.9 W 4 11 2 6 1016.9 1012.5 0.0
19/10:30pm 18.6 16.1 1.6 32 8.0 W 4 7 2 4 1017.1 - 0.0
19/10:00pm 19.8 18.0 1.3 29 8.7 CALM 0 4 0 2 1017.1 1012.7 0.0
19/09:30pm 19.9 16.8 1.4 29 8.7 W 7 11 4 6 1017.0 - 0.0
19/09:00pm 21.3 19.6 1.6 27 9.4 CALM 0 0 0 0 1016.9 1012.5 0.0
19/08:30pm 23.8 20.2 0.8 22 11.0 E 9 13 5 7 1016.9 - 0.0
19/08:00pm 23.7 20.7 0.7 22 11.0 E 6 7 3 4 1016.5 1012.1 0.0
19/07:30pm 25.1 21.5 0.6 20 11.8 NE 9 13 5 7 1016.3 - 0.0
19/07:00pm 26.4 22.8 0.9 19 12.5 E 9 11 5 6 1016.0 1011.6 0.0
19/06:30pm 26.8 23.8 0.5 18 12.8 S 6 9 3 5 1015.9 - 0.0
19/06:00pm 28.7 25.9 -0.5 15 14.2 S 4 7 2 4 1015.6 1011.2 0.0
19/05:30pm 30.9 27.5 -1.8 12 15.8 S 6 9 3 5 1015.4 - 0.0
19/05:00pm 32.2 28.6 -2.0 11 16.6 W 7 11 4 6 1015.2 1010.7 0.0
19/04:30pm 31.9 28.3 -2.2 11 16.4 ESE 7 13 4 7 1015.0 - 0.0
19/04:00pm 32.3 28.3 -1.9 11 16.6 S 9 13 5 7 1015.2 1010.7 0.0
19/03:30pm 32.6 29.1 -1.7 11 16.7 NNW 7 13 4 7 1015.2 - 0.0
19/03:00pm 32.0 27.6 -2.1 11 16.5 S 11 19 6 10 1015.3 1010.8 0.0
19/02:30pm 31.5 27.6 -1.3 12 16.0 WNW 9 15 5 8 1015.5 - 0.0
19/02:00pm 31.5 27.1 -2.5 11 16.2 W 11 20 6 11 1015.6 1011.2 0.0
19/01:30pm 31.0 27.2 -0.6 13 15.5 ENE 9 17 5 9 1016.1 - 0.0
19/01:00pm 30.8 27.0 -0.8 13 15.5 NNE 9 15 5 8 1016.7 1012.3 0.0
19/12:30pm 30.7 26.9 -0.8 13 15.4 WNW 9 20 5 11 1017.1 - 0.0
19/12:00pm 30.1 25.6 -0.3 14 14.9 N 13 22 7 12 1017.7 1013.3 0.0
19/11:30am 29.7 25.2 -0.6 14 14.8 WNW 13 19 7 10 1018.0 - 0.0
19/11:00am 29.8 25.0 0.4 15 14.6 ENE 15 20 8 11 1018.6 1014.2 0.0
19/10:30am 29.7 25.7 0.3 15 14.6 NNE 11 20 6 11 1019.0 - 0.0
19/10:00am 28.4 24.9 1.0 17 13.6 NE 9 13 5 7 1019.4 1015.1 0.0
19/09:30am 26.8 24.1 0.5 18 12.8 NE 4 11 2 6 1019.9 - 0.0
19/09:00am 24.7 22.4 0.3 20 11.6 ENE 2 6 1 3 1020.0 1015.6 0.0
19/08:30am 22.1 19.8 0.6 24 10.1 ENE 2 6 1 3 1020.1 - 0.0
19/08:00am 19.6 17.9 2.0 31 8.4 CALM 0 0 0 0 1020.0 1015.6 0.0
19/07:30am 18.5 16.7 1.5 32 7.9 CALM 0 0 0 0 1019.6 - 0.0
19/07:00am 15.0 13.4 2.2 42 5.9 CALM 0 0 0 0 1019.3 1015.0 0.0
19/06:30am 11.3 9.5 1.5 51 4.3 CALM 0 4 0 2 1019.1 - 0.0
19/06:00am 13.1 10.6 1.8 46 5.1 ENE 4 9 2 5 1018.9 1014.5 0.0
19/05:30am 12.6 10.9 1.9 48 4.8 CALM 0 0 0 0 1018.9 - 0.0
19/05:00am 12.3 10.6 1.6 48 4.7 CALM 0 0 0 0 1018.9 1014.5 0.0
19/04:30am 12.4 10.7 1.7 48 4.8 CALM 0 6 0 3 1018.9 - 0.0
19/04:00am 14.3 12.6 1.6 42 5.7 CALM 0 0 0 0 1018.7 1014.3 0.0
19/03:30am 13.6 11.9 1.6 44 5.4 CALM 0 0 0 0 1018.9 - 0.0
19/03:00am 14.5 12.7 1.1 40 6.0 CALM 0 0 0 0 1019.0 1014.6 0.0
19/02:30am 18.4 14.9 1.4 32 7.9 ENE 9 13 5 7 1019.0 - 0.0
19/02:00am 16.1 13.9 1.0 36 6.8 W 2 6 1 3 1019.1 1014.7 0.0
19/01:30am 18.2 14.7 1.3 32 7.8 E 9 11 5 6 1019.1 - 0.0
19/01:00am 20.1 15.4 1.0 28 8.9 E 15 17 8 9 1019.2 1014.8 0.0
19/12:30am 19.0 14.8 1.5 31 8.2 E 13 19 7 10 1019.5 - 0.0
19/12:00am 15.5 13.8 2.0 40 6.2 CALM 0 0 0 0 1019.9 1015.5 0.0
 
Date/Time
WST
Temp
°C
App
Temp
°C
Dew
Point
Rel
Hum
%
Delta-T
°C
Wind Press
QNH
hPa
Press
MSL
hPa
Rain
since 9 am
mm
Dir
 
Spd
km/h
Gust
km/h
Spd
kts
Gust
kts
18/11:30pm 15.8 14.1 1.9 39 6.4 CALM 0 0 0 0 1019.9 - 0.0
18/11:00pm 17.1 15.3 1.5 35 7.2 CALM 0 0 0 0 1020.2 1015.8 0.0
18/10:30pm 17.9 15.4 1.4 33 7.7 E 4 6 2 3 1020.4 - 0.0
18/10:00pm 19.6 16.2 1.6 30 8.5 E 9 13 5 7 1020.4 1016.0 0.0
18/09:30pm 19.5 17.7 1.5 30 8.5 CALM 0 6 0 3 1020.5 - 0.0
18/09:00pm 20.9 17.9 1.7 28 9.1 ENE 7 11 4 6 1020.4 1016.0 0.0
18/08:30pm 22.8 19.4 1.8 25 10.2 E 9 11 5 6 1020.1 - 0.0
18/08:00pm 23.0 18.8 1.4 24 10.4 E 13 15 7 8 1019.8 1015.4 0.0
18/07:30pm 23.9 20.1 1.5 23 10.9 E 11 13 6 7 1019.4 - 0.0
18/07:00pm 25.2 21.3 1.3 21 11.7 E 11 13 6 7 1019.1 1014.7 0.0
18/06:30pm 26.3 22.7 0.9 19 12.4 E 9 11 5 6 1018.9 - 0.0
18/06:00pm 28.4 24.7 0.2 16 13.8 E 9 13 5 7 1018.5 1014.1 0.0
18/05:30pm 29.8 25.7 -0.5 14 14.8 E 11 13 6 7 1018.1 - 0.0
18/05:00pm 30.7 26.3 0.2 14 15.2 E 13 19 7 10 1017.9 1013.6 0.0
18/04:30pm 31.1 26.2 -0.5 13 15.6 E 15 22 8 12 1017.6 - 0.0
18/04:00pm 31.1 27.0 -0.5 13 15.6 ENE 11 19 6 10 1017.6 1013.2 0.0
18/03:30pm 31.3 27.3 0.6 14 15.4 E 11 17 6 9 1017.5 - 0.0
18/03:00pm 31.0 26.1 -0.6 13 15.5 E 15 24 8 13 1017.7 1013.3 0.0
18/02:30pm 31.5 26.3 -0.2 13 15.8 E 17 28 9 15 1017.7 - 0.0
18/02:00pm 30.7 25.4 -0.8 13 15.4 E 17 32 9 17 1017.8 1013.4 0.0
18/01:30pm 30.5 25.3 0.0 14 15.1 E 17 30 9 16 1018.0 - 0.0
18/01:00pm 30.3 24.5 -0.1 14 15.0 ENE 20 32 11 17 1018.5 1014.1 0.0
18/12:30pm 30.3 24.8 0.8 15 14.8 ENE 19 30 10 16 1018.7 - 0.0
18/12:00pm 30.1 24.0 0.6 15 14.7 E 22 32 12 17 1019.1 1014.7 0.0
18/11:30am 29.9 23.1 0.5 15 14.6 E 26 35 14 19 1019.5 - 0.0
18/11:00am 28.8 22.3 0.5 16 14.0 E 24 35 13 19 1019.8 1015.4 0.0
18/10:30am 29.0 22.2 0.7 16 14.0 E 26 37 14 20 1020.2 - 0.0
18/10:00am 28.0 22.5 0.7 17 13.4 ENE 19 26 10 14 1020.5 1016.1 0.0
18/09:30am 26.9 21.2 0.6 18 12.8 ENE 20 28 11 15 1020.5 - 0.0
18/09:00am 26.1 20.0 0.7 19 12.3 ENE 22 28 12 15 1020.7 1016.4 0.0
18/08:30am 24.1 20.7 1.7 23 10.9 NNE 9 17 5 9 1020.7 - 0.0
18/08:29am 23.1 20.2 2.6 26 10.1 NNE 7 17 4 9 1020.7 - 0.0
18/08:00am 18.1 16.4 2.0 34 7.6 CALM 0 0 0 0 1020.6 1016.3 0.0
18/07:30am 15.0 13.2 1.2 39 6.2 CALM 0 0 0 0 1020.6 - 0.0
18/07:00am 11.6 9.7 0.7 47 4.7 CALM 0 0 0 0 1020.5 1016.1 0.0
18/06:30am 9.9 8.1 1.0 54 3.8 CALM 0 0 0 0 1020.3 - 0.0
18/06:00am 11.1 9.3 1.4 51 4.2 CALM 0 0 0 0 1020.2 1015.8 0.0
18/05:30am 10.6 8.8 1.2 52 4.1 CALM 0 0 0 0 1020.0 - 0.0
18/05:00am 10.9 9.1 0.9 50 4.3 CALM 0 0 0 0 1020.0 1015.6 0.0
18/04:30am 10.9 9.1 0.9 50 4.3 CALM 0 0 0 0 1020.0 - 0.0
18/04:00am 11.2 9.3 0.6 48 4.6 CALM 0 0 0 0 1019.9 1015.5 0.0
18/03:30am 12.0 10.1 0.8 46 4.9 CALM 0 0 0 0 1019.9 - 0.0
18/03:00am 12.2 10.3 0.3 44 5.1 CALM 0 0 0 0 1019.9 1015.5 0.0
18/02:30am 12.6 10.7 0.4 43 5.3 CALM 0 0 0 0 1020.0 - 0.0
18/02:00am 12.9 11.0 0.3 42 5.5 CALM 0 6 0 3 1020.0 1015.6 0.0
18/01:30am 13.0 9.9 0.1 41 5.6 E 6 7 3 4 1020.2 - 0.0
18/01:00am 13.8 11.8 -0.3 38 6.1 CALM 0 0 0 0 1020.3 1015.9 0.0
18/12:30am 14.1 11.7 -0.4 37 6.3 E 2 6 1 3 1020.6 - 0.0
18/12:00am 15.0 11.9 0.4 37 6.5 E 6 7 3 4 1020.7 1016.4 0.0
 
Date/Time
WST
Temp
°C
App
Temp
°C
Dew
Point
Rel
Hum
%
Delta-T
°C
Wind Press
QNH
hPa
Press
MSL
hPa
Rain
since 9 am
mm
Dir
 
Spd
km/h
Gust
km/h
Spd
kts
Gust
kts
17/11:30pm 16.1 12.9 -0.2 33 7.2 E 6 7 3 4 1020.6 - 0.0
17/11:00pm 18.2 15.1 -0.1 29 8.2 E 6 7 3 4 1020.6 1016.3 0.0
17/10:30pm 19.4 15.7 -0.1 27 8.9 E 9 11 5 6 1020.5 - 0.0
17/10:00pm 19.8 15.8 0.3 27 9.0 E 11 15 6 8 1020.5 1016.1 0.0
17/09:30pm 21.2 17.1 -0.1 24 9.8 E 11 13 6 7 1020.6 - 0.0
17/09:00pm 21.5 17.4 0.1 24 9.9 E 11 13 6 7 1020.4 1016.0 0.0
17/08:30pm 22.2 18.1 0.1 23 10.3 E 11 13 6 7 1020.4 - 0.0
17/08:00pm 22.4 18.4 0.3 23 10.4 E 11 13 6 7 1020.2 1015.8 0.0
17/07:30pm 23.0 19.0 0.2 22 10.8 E 11 13 6 7 1019.8 - 0.0
17/07:00pm 24.5 20.3 -0.6 19 11.8 E 11 13 6 7 1019.4 1015.1 0.0
17/06:30pm 25.7 21.8 -1.2 17 12.6 ENE 9 11 5 6 1019.0 - 0.0
17/06:00pm 27.9 23.9 -2.0 14 14.0 ENE 9 13 5 7 1018.6 1014.2 0.0
17/05:30pm 29.5 24.8 -1.8 13 14.9 ENE 13 17 7 9 1018.3 - 0.0
17/05:00pm 30.1 24.6 -2.4 12 15.4 ENE 17 22 9 12 1017.8 1013.4 0.0
17/04:30pm 30.6 25.3 -3.2 11 15.9 E 15 24 8 13 1017.7 - 0.0
17/04:00pm 31.1 26.7 -2.8 11 16.1 E 11 22 6 12 1017.6 1013.2 0.0
17/03:30pm 30.6 25.3 -3.2 11 15.9 E 15 24 8 13 1017.6 - 0.0
17/03:00pm 31.0 25.8 -2.9 11 16.0 E 15 22 8 12 1017.7 1013.3 0.0
17/02:30pm 30.5 26.1 -2.1 12 15.6 ESE 11 20 6 11 1017.7 - 0.0

Other Formats:

Comma delimited format used in spreadsheet applications
http://www.bom.gov.au/fwo/IDW60801/IDW60801.99312.axf

JavaScript Object Notation format (JSON) in row-major order
http://www.bom.gov.au/fwo/IDW60801/IDW60801.99312.json